sensor_id;sensor_type;location;lat;lon;timestamp;pressure;altitude;pressure_sealevel;temperature;humidity
59873;BME280;50750;51.636;4.948;2024-03-29T00:01:00;99174.70;;;13.66;58.52
59873;BME280;50750;51.636;4.948;2024-03-29T00:03:50;99165.58;;;13.66;58.64
59873;BME280;50750;51.636;4.948;2024-03-29T00:06:21;99164.95;;;13.65;58.79
59873;BME280;50750;51.636;4.948;2024-03-29T00:08:50;99160.20;;;13.65;58.72
59873;BME280;50750;51.636;4.948;2024-03-29T00:11:20;99169.71;;;13.65;58.70
59873;BME280;50750;51.636;4.948;2024-03-29T00:13:48;99170.61;;;13.65;58.54
59873;BME280;50750;51.636;4.948;2024-03-29T00:16:18;99176.06;;;13.64;58.56
59873;BME280;50750;51.636;4.948;2024-03-29T00:18:46;99171.83;;;13.64;58.58
59873;BME280;50750;51.636;4.948;2024-03-29T00:21:16;99177.55;;;13.63;58.62
59873;BME280;50750;51.636;4.948;2024-03-29T00:23:44;99179.35;;;13.63;58.63
59873;BME280;50750;51.636;4.948;2024-03-29T00:26:15;99185.31;;;13.63;58.61
59873;BME280;50750;51.636;4.948;2024-03-29T00:28:43;99184.28;;;13.63;58.69
59873;BME280;50750;51.636;4.948;2024-03-29T00:31:13;99188.35;;;13.62;58.67
59873;BME280;50750;51.636;4.948;2024-03-29T00:33:42;99181.51;;;13.62;58.72
59873;BME280;50750;51.636;4.948;2024-03-29T00:36:11;99177.66;;;13.62;58.71
59873;BME280;50750;51.636;4.948;2024-03-29T00:38:40;99180.30;;;13.62;58.71
59873;BME280;50750;51.636;4.948;2024-03-29T00:41:10;99176.13;;;13.61;58.92
59873;BME280;50750;51.636;4.948;2024-03-29T00:43:38;99177.90;;;13.61;58.93
59873;BME280;50750;51.636;4.948;2024-03-29T00:46:08;99178.81;;;13.60;58.64
59873;BME280;50750;51.636;4.948;2024-03-29T00:48:36;99181.45;;;13.60;58.73
59873;BME280;50750;51.636;4.948;2024-03-29T00:51:07;99189.06;;;13.60;58.76
59873;BME280;50750;51.636;4.948;2024-03-29T00:53:36;99191.88;;;13.60;58.81
59873;BME280;50750;51.636;4.948;2024-03-29T00:56:05;99196.27;;;13.60;58.74
59873;BME280;50750;51.636;4.948;2024-03-29T00:58:35;99192.77;;;13.60;58.81
59873;BME280;50750;51.636;4.948;2024-03-29T01:01:03;99195.25;;;13.59;59.02
59873;BME280;50750;51.636;4.948;2024-03-29T01:03:33;99198.13;;;13.58;58.81
59873;BME280;50750;51.636;4.948;2024-03-29T01:06:02;99194.92;;;13.59;58.96
59873;BME280;50750;51.636;4.948;2024-03-29T01:08:32;99184.88;;;13.59;58.93
59873;BME280;50750;51.636;4.948;2024-03-29T01:11:00;99193.54;;;13.58;58.86
59873;BME280;50750;51.636;4.948;2024-03-29T01:13:30;99197.98;;;13.58;58.94
59873;BME280;50750;51.636;4.948;2024-03-29T01:15:58;99194.56;;;13.59;58.78
59873;BME280;50750;51.636;4.948;2024-03-29T01:18:28;99186.05;;;13.57;59.00
59873;BME280;50750;51.636;4.948;2024-03-29T01:20:58;99190.92;;;13.58;58.98
59873;BME280;50750;51.636;4.948;2024-03-29T01:23:27;99188.58;;;13.59;59.05
59873;BME280;50750;51.636;4.948;2024-03-29T01:25:56;99184.79;;;13.58;58.94
59873;BME280;50750;51.636;4.948;2024-03-29T01:28:26;99179.11;;;13.59;59.16
59873;BME280;50750;51.636;4.948;2024-03-29T01:30:56;99175.57;;;13.59;59.23
59873;BME280;50750;51.636;4.948;2024-03-29T01:33:27;99172.03;;;13.59;59.03
59873;BME280;50750;51.636;4.948;2024-03-29T01:36:01;99167.27;;;13.59;59.07
59873;BME280;50750;51.636;4.948;2024-03-29T01:38:31;99153.34;;;13.60;59.11
59873;BME280;50750;51.636;4.948;2024-03-29T01:41:01;99145.94;;;13.60;59.35
59873;BME280;50750;51.636;4.948;2024-03-29T01:43:32;99152.41;;;13.61;59.11
59873;BME280;50750;51.636;4.948;2024-03-29T01:46:02;99148.34;;;13.61;59.19
59873;BME280;50750;51.636;4.948;2024-03-29T01:48:35;99150.05;;;13.62;59.13
59873;BME280;50750;51.636;4.948;2024-03-29T01:51:05;99152.67;;;13.62;59.32
59873;BME280;50750;51.636;4.948;2024-03-29T01:53:35;99158.28;;;13.62;59.16
59873;BME280;50750;51.636;4.948;2024-03-29T01:56:06;99159.46;;;13.63;59.28
59873;BME280;50750;51.636;4.948;2024-03-29T01:58:38;99158.55;;;13.63;59.18
59873;BME280;50750;51.636;4.948;2024-03-29T02:01:09;99152.38;;;13.63;59.11
59873;BME280;50750;51.636;4.948;2024-03-29T02:03:39;99149.00;;;13.64;59.16
59873;BME280;50750;51.636;4.948;2024-03-29T02:06:09;99149.85;;;13.65;59.19
59873;BME280;50750;51.636;4.948;2024-03-29T02:08:41;99154.08;;;13.64;59.26
59873;BME280;50750;51.636;4.948;2024-03-29T02:11:09;99155.66;;;13.65;59.14
59873;BME280;50750;51.636;4.948;2024-03-29T02:13:39;99164.81;;;13.64;59.00
59873;BME280;50750;51.636;4.948;2024-03-29T02:16:08;99177.85;;;13.64;59.17
59873;BME280;50750;51.636;4.948;2024-03-29T02:18:37;99170.88;;;13.63;59.19
59873;BME280;50750;51.636;4.948;2024-03-29T02:21:06;99164.40;;;13.63;59.16
59873;BME280;50750;51.636;4.948;2024-03-29T02:23:40;99179.40;;;13.62;59.17
59873;BME280;50750;51.636;4.948;2024-03-29T02:26:11;99183.66;;;13.62;59.28
59873;BME280;50750;51.636;4.948;2024-03-29T02:28:41;99179.80;;;13.61;59.05
59873;BME280;50750;51.636;4.948;2024-03-29T02:31:10;99184.16;;;13.62;59.22
59873;BME280;50750;51.636;4.948;2024-03-29T02:33:40;99186.48;;;13.61;59.25
59873;BME280;50750;51.636;4.948;2024-03-29T02:36:08;99182.98;;;13.61;59.31
59873;BME280;50750;51.636;4.948;2024-03-29T02:38:38;99184.29;;;13.60;59.38
59873;BME280;50750;51.636;4.948;2024-03-29T02:41:08;99177.61;;;13.60;59.39
59873;BME280;50750;51.636;4.948;2024-03-29T02:43:36;99175.39;;;13.59;59.24
59873;BME280;50750;51.636;4.948;2024-03-29T02:46:06;99179.48;;;13.58;59.43
59873;BME280;50750;51.636;4.948;2024-03-29T02:48:34;99173.57;;;13.57;59.41
59873;BME280;50750;51.636;4.948;2024-03-29T02:51:05;99166.39;;;13.57;59.43
59873;BME280;50750;51.636;4.948;2024-03-29T02:53:34;99166.06;;;13.57;59.38
59873;BME280;50750;51.636;4.948;2024-03-29T02:56:05;99166.60;;;13.57;59.41
59873;BME280;50750;51.636;4.948;2024-03-29T02:58:36;99174.84;;;13.57;59.32
59873;BME280;50750;51.636;4.948;2024-03-29T03:01:09;99172.52;;;13.57;59.22
59873;BME280;50750;51.636;4.948;2024-03-29T03:03:39;99173.90;;;13.58;59.34
59873;BME280;50750;51.636;4.948;2024-03-29T03:06:08;99179.65;;;13.58;59.31
59873;BME280;50750;51.636;4.948;2024-03-29T03:08:38;99184.08;;;13.58;59.26
59873;BME280;50750;51.636;4.948;2024-03-29T03:11:21;99198.45;;;13.59;59.20
59873;BME280;50750;51.636;4.948;2024-03-29T03:13:50;99194.41;;;13.59;59.17
59873;BME280;50750;51.636;4.948;2024-03-29T03:16:20;99184.29;;;13.57;59.23
59873;BME280;50750;51.636;4.948;2024-03-29T03:18:51;99186.90;;;13.58;59.27
59873;BME280;50750;51.636;4.948;2024-03-29T03:21:21;99195.17;;;13.58;59.26
59873;BME280;50750;51.636;4.948;2024-03-29T03:23:49;99195.34;;;13.58;59.08
59873;BME280;50750;51.636;4.948;2024-03-29T03:26:19;99194.33;;;13.57;59.08
59873;BME280;50750;51.636;4.948;2024-03-29T03:28:47;99196.99;;;13.57;59.26
59873;BME280;50750;51.636;4.948;2024-03-29T03:31:17;99188.75;;;13.56;59.07
59873;BME280;50750;51.636;4.948;2024-03-29T03:33:45;99187.54;;;13.56;59.17
59873;BME280;50750;51.636;4.948;2024-03-29T03:36:15;99203.23;;;13.56;59.15
59873;BME280;50750;51.636;4.948;2024-03-29T03:38:43;99206.59;;;13.56;58.87
59873;BME280;50750;51.636;4.948;2024-03-29T03:41:13;99218.23;;;13.55;59.01
59873;BME280;50750;51.636;4.948;2024-03-29T03:43:42;99227.77;;;13.55;59.14
59873;BME280;50750;51.636;4.948;2024-03-29T03:46:11;99226.59;;;13.54;59.01
59873;BME280;50750;51.636;4.948;2024-03-29T03:48:40;99231.52;;;13.53;58.89
59873;BME280;50750;51.636;4.948;2024-03-29T03:51:09;99242.80;;;13.53;59.16
59873;BME280;50750;51.636;4.948;2024-03-29T03:53:38;99255.29;;;13.53;59.07
59873;BME280;50750;51.636;4.948;2024-03-29T03:56:08;99253.59;;;13.53;59.04
59873;BME280;50750;51.636;4.948;2024-03-29T03:58:38;99258.23;;;13.52;59.27
59873;BME280;50750;51.636;4.948;2024-03-29T04:01:08;99259.09;;;13.52;59.34
59873;BME280;50750;51.636;4.948;2024-03-29T04:03:36;99271.91;;;13.52;59.33
59873;BME280;50750;51.636;4.948;2024-03-29T04:06:08;99272.45;;;13.52;59.29
59873;BME280;50750;51.636;4.948;2024-03-29T04:08:38;99270.68;;;13.52;59.36
59873;BME280;50750;51.636;4.948;2024-03-29T04:11:06;99269.98;;;13.52;59.30
59873;BME280;50750;51.636;4.948;2024-03-29T04:13:36;99268.05;;;13.52;59.42
59873;BME280;50750;51.636;4.948;2024-03-29T04:16:09;99269.95;;;13.52;59.38
59873;BME280;50750;51.636;4.948;2024-03-29T04:18:38;99274.36;;;13.52;59.54
59873;BME280;50750;51.636;4.948;2024-03-29T04:21:08;99276.64;;;13.52;59.42
59873;BME280;50750;51.636;4.948;2024-03-29T04:23:36;99274.90;;;13.52;59.49
59873;BME280;50750;51.636;4.948;2024-03-29T04:26:06;99270.89;;;13.51;59.58
59873;BME280;50750;51.636;4.948;2024-03-29T04:28:35;99268.41;;;13.51;59.48
59873;BME280;50750;51.636;4.948;2024-03-29T04:31:05;99259.30;;;13.51;59.66
59873;BME280;50750;51.636;4.948;2024-03-29T04:33:35;99261.23;;;13.51;59.59
59873;BME280;50750;51.636;4.948;2024-03-29T04:36:04;99273.91;;;13.51;59.69
59873;BME280;50750;51.636;4.948;2024-03-29T04:38:34;99268.66;;;13.50;59.67
59873;BME280;50750;51.636;4.948;2024-03-29T04:41:04;99268.85;;;13.50;59.77
59873;BME280;50750;51.636;4.948;2024-03-29T04:43:34;99273.17;;;13.51;59.83
59873;BME280;50750;51.636;4.948;2024-03-29T04:46:03;99271.60;;;13.51;59.77
59873;BME280;50750;51.636;4.948;2024-03-29T04:48:32;99274.42;;;13.51;59.65
59873;BME280;50750;51.636;4.948;2024-03-29T04:51:03;99271.11;;;13.51;59.84
59873;BME280;50750;51.636;4.948;2024-03-29T04:53:32;99263.00;;;13.51;59.93
59873;BME280;50750;51.636;4.948;2024-03-29T04:56:01;99263.90;;;13.51;59.78
59873;BME280;50750;51.636;4.948;2024-03-29T04:58:31;99265.48;;;13.51;59.83
59873;BME280;50750;51.636;4.948;2024-03-29T05:01:01;99247.00;;;13.51;59.95
59873;BME280;50750;51.636;4.948;2024-03-29T05:03:29;99258.06;;;13.51;59.81
59873;BME280;50750;51.636;4.948;2024-03-29T05:05:59;99267.41;;;13.50;59.99
59873;BME280;50750;51.636;4.948;2024-03-29T05:08:28;99256.70;;;13.51;59.98
59873;BME280;50750;51.636;4.948;2024-03-29T05:10:57;99251.44;;;13.50;59.92
59873;BME280;50750;51.636;4.948;2024-03-29T05:13:26;99258.45;;;13.51;59.72
59873;BME280;50750;51.636;4.948;2024-03-29T05:15:56;99263.24;;;13.50;60.04
59873;BME280;50750;51.636;4.948;2024-03-29T05:18:24;99269.05;;;13.50;60.00
59873;BME280;50750;51.636;4.948;2024-03-29T05:20:54;99273.11;;;13.49;60.08
59873;BME280;50750;51.636;4.948;2024-03-29T05:23:24;99266.29;;;13.49;59.98
59873;BME280;50750;51.636;4.948;2024-03-29T05:25:52;99259.77;;;13.50;60.00
59873;BME280;50750;51.636;4.948;2024-03-29T05:28:22;99260.32;;;13.49;60.09
59873;BME280;50750;51.636;4.948;2024-03-29T05:30:52;99257.67;;;13.49;60.20
59873;BME280;50750;51.636;4.948;2024-03-29T05:33:22;99262.21;;;13.50;60.16
59873;BME280;50750;51.636;4.948;2024-03-29T05:35:52;99266.60;;;13.50;60.04
59873;BME280;50750;51.636;4.948;2024-03-29T05:38:20;99263.23;;;13.50;60.06
59873;BME280;50750;51.636;4.948;2024-03-29T05:40:50;99269.33;;;13.51;60.20
59873;BME280;50750;51.636;4.948;2024-03-29T05:43:18;99273.22;;;13.51;60.03
59873;BME280;50750;51.636;4.948;2024-03-29T05:45:53;99274.48;;;13.50;60.26
59873;BME280;50750;51.636;4.948;2024-03-29T05:48:23;99274.66;;;13.50;60.15
59873;BME280;50750;51.636;4.948;2024-03-29T05:50:53;99282.73;;;13.50;60.17
59873;BME280;50750;51.636;4.948;2024-03-29T05:53:23;99279.19;;;13.51;60.15
59873;BME280;50750;51.636;4.948;2024-03-29T05:55:52;99287.25;;;13.51;60.15
59873;BME280;50750;51.636;4.948;2024-03-29T05:58:21;99293.20;;;13.51;60.21
59873;BME280;50750;51.636;4.948;2024-03-29T06:00:51;99292.34;;;13.51;60.20
59873;BME280;50750;51.636;4.948;2024-03-29T06:03:19;99293.58;;;13.51;60.40
59873;BME280;50750;51.636;4.948;2024-03-29T06:05:49;99303.08;;;13.51;60.25
59873;BME280;50750;51.636;4.948;2024-03-29T06:08:18;99303.43;;;13.51;60.19
59873;BME280;50750;51.636;4.948;2024-03-29T06:10:49;99299.59;;;13.50;60.17
59873;BME280;50750;51.636;4.948;2024-03-29T06:13:21;99298.92;;;13.50;60.33
59873;BME280;50750;51.636;4.948;2024-03-29T06:16:13;99299.62;;;13.51;60.37
59873;BME280;50750;51.636;4.948;2024-03-29T06:18:57;99301.38;;;13.50;60.29
59873;BME280;50750;51.636;4.948;2024-03-29T06:21:27;99310.13;;;13.51;60.13
59873;BME280;50750;51.636;4.948;2024-03-29T06:23:57;99312.92;;;13.51;60.43
59873;BME280;50750;51.636;4.948;2024-03-29T06:26:25;99318.20;;;13.51;60.28
59873;BME280;50750;51.636;4.948;2024-03-29T06:28:55;99314.85;;;13.51;60.28
59873;BME280;50750;51.636;4.948;2024-03-29T06:31:25;99316.81;;;13.51;60.46
59873;BME280;50750;51.636;4.948;2024-03-29T06:33:55;99316.11;;;13.51;60.46
59873;BME280;50750;51.636;4.948;2024-03-29T06:36:26;99313.97;;;13.51;60.43
59873;BME280;50750;51.636;4.948;2024-03-29T06:38:56;99314.31;;;13.52;60.36
59873;BME280;50750;51.636;4.948;2024-03-29T06:41:24;99312.90;;;13.52;60.29
59873;BME280;50750;51.636;4.948;2024-03-29T06:43:54;99315.89;;;13.52;60.49
59873;BME280;50750;51.636;4.948;2024-03-29T06:46:25;99308.34;;;13.51;60.30
59873;BME280;50750;51.636;4.948;2024-03-29T06:48:54;99277.52;;;13.52;60.49
59873;BME280;50750;51.636;4.948;2024-03-29T06:51:24;99283.87;;;13.52;60.38
59873;BME280;50750;51.636;4.948;2024-03-29T06:53:54;99292.95;;;13.53;60.30
59873;BME280;50750;51.636;4.948;2024-03-29T06:56:22;99288.95;;;13.52;60.49
59873;BME280;50750;51.636;4.948;2024-03-29T06:58:52;99290.56;;;13.52;60.45
59873;BME280;50750;51.636;4.948;2024-03-29T07:01:22;99294.92;;;13.52;60.40
59873;BME280;50750;51.636;4.948;2024-03-29T07:03:52;99298.80;;;13.52;60.27
59873;BME280;50750;51.636;4.948;2024-03-29T07:06:22;99302.69;;;13.52;60.51
59873;BME280;50750;51.636;4.948;2024-03-29T07:08:52;99312.87;;;13.52;60.48
59873;BME280;50750;51.636;4.948;2024-03-29T07:11:20;99319.38;;;13.52;60.31
59873;BME280;50750;51.636;4.948;2024-03-29T07:13:50;99322.20;;;13.52;60.42
59873;BME280;50750;51.636;4.948;2024-03-29T07:16:18;99326.80;;;13.52;60.46
59873;BME280;50750;51.636;4.948;2024-03-29T07:18:48;99327.84;;;13.52;60.35
59873;BME280;50750;51.636;4.948;2024-03-29T07:21:16;99327.34;;;13.52;60.36
59873;BME280;50750;51.636;4.948;2024-03-29T07:23:47;99326.31;;;13.51;60.44
59873;BME280;50750;51.636;4.948;2024-03-29T07:26:17;99325.08;;;13.51;60.49
59873;BME280;50750;51.636;4.948;2024-03-29T07:28:46;99333.14;;;13.51;60.36
59873;BME280;50750;51.636;4.948;2024-03-29T07:31:15;99333.02;;;13.50;60.39
59873;BME280;50750;51.636;4.948;2024-03-29T07:33:44;99333.05;;;13.50;60.50
59873;BME280;50750;51.636;4.948;2024-03-29T07:36:14;99334.65;;;13.50;60.48
59873;BME280;50750;51.636;4.948;2024-03-29T07:38:45;99338.54;;;13.50;60.63
59873;BME280;50750;51.636;4.948;2024-03-29T07:41:15;99332.75;;;13.49;60.59
59873;BME280;50750;51.636;4.948;2024-03-29T07:43:54;99332.18;;;13.50;60.50
59873;BME280;50750;51.636;4.948;2024-03-29T07:46:27;99339.36;;;13.51;60.61
59873;BME280;50750;51.636;4.948;2024-03-29T07:48:57;99343.73;;;13.51;60.50
59873;BME280;50750;51.636;4.948;2024-03-29T07:51:26;99339.66;;;13.51;60.44
59873;BME280;50750;51.636;4.948;2024-03-29T07:53:55;99335.05;;;13.52;60.41
59873;BME280;50750;51.636;4.948;2024-03-29T07:56:26;99333.64;;;13.52;60.45
59873;BME280;50750;51.636;4.948;2024-03-29T07:58:56;99341.91;;;13.52;60.47
59873;BME280;50750;51.636;4.948;2024-03-29T08:01:24;99342.97;;;13.52;60.55
59873;BME280;50750;51.636;4.948;2024-03-29T08:03:54;99342.80;;;13.51;60.52
59873;BME280;50750;51.636;4.948;2024-03-29T08:06:22;99342.83;;;13.51;60.70
59873;BME280;50750;51.636;4.948;2024-03-29T08:08:52;99345.11;;;13.51;60.61
59873;BME280;50750;51.636;4.948;2024-03-29T08:11:22;99343.01;;;13.51;60.57
59873;BME280;50750;51.636;4.948;2024-03-29T08:13:52;99334.06;;;13.51;60.41
59873;BME280;50750;51.636;4.948;2024-03-29T08:16:20;99334.21;;;13.51;60.67
59873;BME280;50750;51.636;4.948;2024-03-29T08:18:56;99329.85;;;13.50;60.61
59873;BME280;50750;51.636;4.948;2024-03-29T08:21:26;99337.94;;;13.51;60.55
59873;BME280;50750;51.636;4.948;2024-03-29T08:23:57;99356.92;;;13.51;60.66
59873;BME280;50750;51.636;4.948;2024-03-29T08:26:28;99349.89;;;13.51;60.55
59873;BME280;50750;51.636;4.948;2024-03-29T08:28:58;99364.44;;;13.51;60.68
59873;BME280;50750;51.636;4.948;2024-03-29T08:31:28;99359.84;;;13.52;60.83
59873;BME280;50750;51.636;4.948;2024-03-29T08:33:58;99348.56;;;13.52;60.71
59873;BME280;50750;51.636;4.948;2024-03-29T08:36:28;99344.48;;;13.53;60.71
59873;BME280;50750;51.636;4.948;2024-03-29T08:38:58;99342.48;;;13.54;60.77
59873;BME280;50750;51.636;4.948;2024-03-29T08:41:26;99346.15;;;13.54;60.61
59873;BME280;50750;51.636;4.948;2024-03-29T08:43:56;99352.30;;;13.54;60.79
59873;BME280;50750;51.636;4.948;2024-03-29T08:46:24;99355.21;;;13.55;60.74
59873;BME280;50750;51.636;4.948;2024-03-29T08:48:54;99362.23;;;13.55;60.73
59873;BME280;50750;51.636;4.948;2024-03-29T08:51:25;99366.07;;;13.56;60.53
59873;BME280;50750;51.636;4.948;2024-03-29T08:53:54;99364.43;;;13.57;60.62
59873;BME280;50750;51.636;4.948;2024-03-29T08:56:26;99376.18;;;13.57;60.52
59873;BME280;50750;51.636;4.948;2024-03-29T08:58:54;99384.73;;;13.58;60.60
59873;BME280;50750;51.636;4.948;2024-03-29T09:01:25;99378.99;;;13.57;60.70
59873;BME280;50750;51.636;4.948;2024-03-29T09:03:53;99379.66;;;13.58;60.84
59873;BME280;50750;51.636;4.948;2024-03-29T09:06:23;99373.73;;;13.57;60.70
59873;BME280;50750;51.636;4.948;2024-03-29T09:08:51;99367.39;;;13.57;60.69
59873;BME280;50750;51.636;4.948;2024-03-29T09:11:21;99367.23;;;13.57;60.69
59873;BME280;50750;51.636;4.948;2024-03-29T09:13:49;99375.34;;;13.57;60.49
59873;BME280;50750;51.636;4.948;2024-03-29T09:16:19;99380.98;;;13.56;60.71
59873;BME280;50750;51.636;4.948;2024-03-29T09:18:50;99376.77;;;13.56;60.74
59873;BME280;50750;51.636;4.948;2024-03-29T09:21:20;99381.54;;;13.56;60.84
59873;BME280;50750;51.636;4.948;2024-03-29T09:23:50;99381.34;;;13.56;60.84
59873;BME280;50750;51.636;4.948;2024-03-29T09:26:21;99381.50;;;13.57;60.70
59873;BME280;50750;51.636;4.948;2024-03-29T09:28:50;99384.98;;;13.57;60.87
59873;BME280;50750;51.636;4.948;2024-03-29T09:31:19;99387.08;;;13.57;60.95
59873;BME280;50750;51.636;4.948;2024-03-29T09:33:49;99384.45;;;13.57;60.85
59873;BME280;50750;51.636;4.948;2024-03-29T09:36:23;99389.58;;;13.57;60.86
59873;BME280;50750;51.636;4.948;2024-03-29T09:38:52;99391.83;;;13.57;60.92
59873;BME280;50750;51.636;4.948;2024-03-29T09:41:21;99402.88;;;13.58;60.86
59873;BME280;50750;51.636;4.948;2024-03-29T09:43:54;99412.86;;;13.58;60.91
59873;BME280;50750;51.636;4.948;2024-03-29T09:46:28;99412.55;;;13.58;61.08
59873;BME280;50750;51.636;4.948;2024-03-29T09:48:59;99415.30;;;13.59;61.02
59873;BME280;50750;51.636;4.948;2024-03-29T09:51:31;99420.36;;;13.59;61.00
59873;BME280;50750;51.636;4.948;2024-03-29T09:54:02;99416.68;;;13.59;61.04
59873;BME280;50750;51.636;4.948;2024-03-29T09:56:33;99411.88;;;13.60;60.98
59873;BME280;50750;51.636;4.948;2024-03-29T09:59:03;99409.39;;;13.60;61.17
59873;BME280;50750;51.636;4.948;2024-03-29T10:01:32;99411.86;;;13.60;61.12
59873;BME280;50750;51.636;4.948;2024-03-29T10:04:02;99406.37;;;13.61;61.04
59873;BME280;50750;51.636;4.948;2024-03-29T10:06:34;99394.33;;;13.62;61.12
59873;BME280;50750;51.636;4.948;2024-03-29T10:09:05;99388.81;;;13.63;61.00
59873;BME280;50750;51.636;4.948;2024-03-29T10:11:35;99396.11;;;13.64;61.33
59873;BME280;50750;51.636;4.948;2024-03-29T10:14:03;99406.19;;;13.66;61.18
59873;BME280;50750;51.636;4.948;2024-03-29T10:16:34;99413.51;;;13.67;61.00
59873;BME280;50750;51.636;4.948;2024-03-29T10:19:04;99410.14;;;13.68;61.07
59873;BME280;50750;51.636;4.948;2024-03-29T10:21:35;99412.66;;;13.69;61.11
59873;BME280;50750;51.636;4.948;2024-03-29T10:24:13;99411.54;;;13.70;60.94
59873;BME280;50750;51.636;4.948;2024-03-29T10:26:44;99416.23;;;13.71;60.98
59873;BME280;50750;51.636;4.948;2024-03-29T10:29:14;99425.30;;;13.72;61.11
59873;BME280;50750;51.636;4.948;2024-03-29T10:31:42;99420.90;;;13.73;61.14
59873;BME280;50750;51.636;4.948;2024-03-29T10:34:12;99412.08;;;13.73;61.11
59873;BME280;50750;51.636;4.948;2024-03-29T10:36:40;99411.88;;;13.74;61.09
59873;BME280;50750;51.636;4.948;2024-03-29T10:39:11;99405.02;;;13.73;61.09
59873;BME280;50750;51.636;4.948;2024-03-29T10:41:43;99418.39;;;13.73;60.93
59873;BME280;50750;51.636;4.948;2024-03-29T10:44:13;99420.52;;;13.73;60.96
59873;BME280;50750;51.636;4.948;2024-03-29T10:46:44;99426.30;;;13.74;60.97
59873;BME280;50750;51.636;4.948;2024-03-29T10:49:16;99437.52;;;13.74;61.10
59873;BME280;50750;51.636;4.948;2024-03-29T10:51:46;99434.91;;;13.74;61.09
59873;BME280;50750;51.636;4.948;2024-03-29T10:54:15;99436.80;;;13.74;61.23
59873;BME280;50750;51.636;4.948;2024-03-29T10:56:50;99452.98;;;13.74;61.11
59873;BME280;50750;51.636;4.948;2024-03-29T10:59:25;99451.75;;;13.74;61.06
59873;BME280;50750;51.636;4.948;2024-03-29T11:01:59;99448.87;;;13.75;61.15
59873;BME280;50750;51.636;4.948;2024-03-29T11:04:32;99444.81;;;13.76;60.90
59873;BME280;50750;51.636;4.948;2024-03-29T11:07:19;99440.89;;;13.76;61.13
59873;BME280;50750;51.636;4.948;2024-03-29T11:09:56;99427.17;;;13.76;60.90
59873;BME280;50750;51.636;4.948;2024-03-29T11:12:29;99417.27;;;13.77;61.08
59873;BME280;50750;51.636;4.948;2024-03-29T11:15:03;99408.77;;;13.78;61.03
59873;BME280;50750;51.636;4.948;2024-03-29T11:17:34;99414.36;;;13.78;61.06
59873;BME280;50750;51.636;4.948;2024-03-29T11:20:06;99420.14;;;13.79;60.98
59873;BME280;50750;51.636;4.948;2024-03-29T11:22:36;99421.35;;;13.79;61.10
59873;BME280;50750;51.636;4.948;2024-03-29T11:25:07;99429.57;;;13.80;61.15
59873;BME280;50750;51.636;4.948;2024-03-29T11:27:41;99425.64;;;13.80;61.08
59873;BME280;50750;51.636;4.948;2024-03-29T11:30:13;99432.48;;;13.81;61.11
59873;BME280;50750;51.636;4.948;2024-03-29T11:32:46;99441.42;;;13.81;61.22
59873;BME280;50750;51.636;4.948;2024-03-29T11:35:19;99448.44;;;13.82;61.29
59873;BME280;50750;51.636;4.948;2024-03-29T11:37:59;99449.11;;;13.82;61.16
59873;BME280;50750;51.636;4.948;2024-03-29T11:40:31;99449.62;;;13.82;61.32
59873;BME280;50750;51.636;4.948;2024-03-29T11:43:01;99447.12;;;13.83;61.16
59873;BME280;50750;51.636;4.948;2024-03-29T11:45:33;99446.92;;;13.83;61.04
59873;BME280;50750;51.636;4.948;2024-03-29T11:48:09;99452.89;;;13.83;61.13
59873;BME280;50750;51.636;4.948;2024-03-29T11:50:42;99460.56;;;13.84;60.99
59873;BME280;50750;51.636;4.948;2024-03-29T11:53:13;99460.25;;;13.84;61.07
59873;BME280;50750;51.636;4.948;2024-03-29T11:55:43;99459.14;;;13.85;60.89
59873;BME280;50750;51.636;4.948;2024-03-29T11:58:11;99463.30;;;13.86;61.01
59873;BME280;50750;51.636;4.948;2024-03-29T12:00:41;99463.88;;;13.85;60.98
59873;BME280;50750;51.636;4.948;2024-03-29T12:03:14;99471.08;;;13.85;60.90
59873;BME280;50750;51.636;4.948;2024-03-29T12:05:45;99475.30;;;13.85;60.96
59873;BME280;50750;51.636;4.948;2024-03-29T12:08:15;99473.02;;;13.85;60.97
59873;BME280;50750;51.636;4.948;2024-03-29T12:10:45;99467.19;;;13.85;61.03
59873;BME280;50750;51.636;4.948;2024-03-29T12:13:17;99463.82;;;13.86;61.02
59873;BME280;50750;51.636;4.948;2024-03-29T12:15:47;99463.45;;;13.86;61.01
59873;BME280;50750;51.636;4.948;2024-03-29T12:18:15;99460.60;;;13.87;60.91
59873;BME280;50750;51.636;4.948;2024-03-29T12:20:47;99460.45;;;13.86;61.15
59873;BME280;50750;51.636;4.948;2024-03-29T12:23:19;99462.52;;;13.87;61.14
59873;BME280;50750;51.636;4.948;2024-03-29T12:25:50;99455.99;;;13.87;61.11
59873;BME280;50750;51.636;4.948;2024-03-29T12:28:20;99460.22;;;13.87;60.92
59873;BME280;50750;51.636;4.948;2024-03-29T12:30:51;99459.27;;;13.88;61.01
59873;BME280;50750;51.636;4.948;2024-03-29T12:33:22;99457.85;;;13.88;60.95
59873;BME280;50750;51.636;4.948;2024-03-29T12:35:53;99452.16;;;13.89;60.97
59873;BME280;50750;51.636;4.948;2024-03-29T12:38:24;99455.86;;;13.89;60.97
59873;BME280;50750;51.636;4.948;2024-03-29T12:40:54;99468.61;;;13.90;61.08
59873;BME280;50750;51.636;4.948;2024-03-29T12:43:24;99474.35;;;13.91;61.06
59873;BME280;50750;51.636;4.948;2024-03-29T12:45:55;99477.83;;;13.92;60.86
59873;BME280;50750;51.636;4.948;2024-03-29T12:48:24;99468.44;;;13.93;60.94
59873;BME280;50750;51.636;4.948;2024-03-29T12:50:54;99469.66;;;13.93;60.98
59873;BME280;50750;51.636;4.948;2024-03-29T12:53:25;99473.85;;;13.93;61.01
59873;BME280;50750;51.636;4.948;2024-03-29T12:55:53;99469.81;;;13.94;61.12
59873;BME280;50750;51.636;4.948;2024-03-29T12:58:23;99473.16;;;13.93;60.98
59873;BME280;50750;51.636;4.948;2024-03-29T13:00:53;99473.36;;;13.93;60.98
59873;BME280;50750;51.636;4.948;2024-03-29T13:03:23;99472.44;;;13.94;60.95
59873;BME280;50750;51.636;4.948;2024-03-29T13:05:53;99467.66;;;13.95;60.99
59873;BME280;50750;51.636;4.948;2024-03-29T13:08:23;99470.98;;;13.95;60.98
59873;BME280;50750;51.636;4.948;2024-03-29T13:10:53;99480.61;;;13.96;60.96
59873;BME280;50750;51.636;4.948;2024-03-29T13:13:24;99480.93;;;13.96;61.07
59873;BME280;50750;51.636;4.948;2024-03-29T13:15:53;99481.41;;;13.97;61.00